Huvudsida
METAR-TAF:

METAR-TAF

Flygplatser :

Palma de Mallorcas flygplats

Palma de Mallorca, Spanien

latitud: 39-33N, longitud: 002-44E, höjd: 4 m

Aktuellt väderrapport

Denna rapport gjordes för 35 minuter sedan, klockan 21:00 UTC
Stilla vind
Temperatur 23°C
Fuktighet 69%
Tryck 1018 hPa
Sikt 10 km eller mer
Inga moln under 1 500 m eller inga cumulonimbus

METAR: LEPA 192100Z 00000KT CAVOK 23/17 Q1018 NOSIG

Tid: 23:35 (21:35 UTC)

Väderprognos

Denna rapport gjordes för 4 timmar och 35 minuter sedan, klockan 17:00 UTC
Prognos gäller från 19 kl. 18 UTC till 20 kl. 18 UTC
Vind 8 kt från nord
Sikt 10 km eller mer
Få moln på en höjd av 2500 ft
Spridda moln på en höjd av 5000 ft
Blir
från 19 kl. 18 UTC till 19 kl. 21 UTC
Vind 3 kt varierande vindriktning
Blir
från 20 kl. 08 UTC till 20 kl. 10 UTC
Vind 10 kt från nordost

TAF: LEPA 191700Z 1918/2018 36008KT 9999 FEW025 SCT050 TX34/2013Z TN23/2006Z BECMG 1918/1921 VRB03KT BECMG 2008/2010 04010KT

Aktuella väderrapporter och prognoser från 4000 flygplatser (METAR- och TAF-rapporter).

De tillgängliga stationerna syns som gula och röda prickar på kartan.

För musen över prickarna för att se namnen på stationerna.

Klicka sedan för att få väderrapporter och prognoser.

För att ändra kartan: Klicka på de gröna knapparna med ett svart kors på för att zooma in; den gröna knappen med ett streck på för att zooma ut; eller på de gröna pilarna för angränsande kartor.


METAR-TAF: